createdAt,value
2022-08-08T00:01:12.649Z,11.95
2022-08-08T00:03:58.805Z,12.13
2022-08-08T00:06:41.163Z,12.37
2022-08-08T00:09:16.938Z,12.34
2022-08-08T00:12:07.104Z,11.77
2022-08-08T00:15:00.143Z,11.98
2022-08-08T00:18:02.539Z,12.10
2022-08-08T00:20:39.515Z,12.31
2022-08-08T00:23:15.521Z,11.93
2022-08-08T00:25:50.850Z,11.95
2022-08-08T00:28:35.250Z,11.81
2022-08-08T00:32:29.129Z,11.44
2022-08-08T00:34:36.094Z,11.43
2022-08-08T00:37:16.604Z,11.27
2022-08-08T00:41:11.272Z,11.04
2022-08-08T00:43:56.006Z,11.04
2022-08-08T00:46:58.668Z,11.07
2022-08-08T00:50:14.973Z,11.02
2022-08-08T00:52:54.402Z,10.84
2022-08-08T00:55:54.834Z,10.83
2022-08-08T00:59:00.242Z,11.11
2022-08-08T01:01:39.878Z,11.28
2022-08-08T01:04:43.929Z,10.92
2022-08-08T01:07:57.643Z,11.17
2022-08-08T01:11:08.398Z,10.98
2022-08-08T01:14:16.652Z,11.18
2022-08-08T01:17:53.216Z,10.92
2022-08-08T01:20:58.374Z,11.19
2022-08-08T01:24:13.494Z,11.36
2022-08-08T01:27:24.072Z,10.93
2022-08-08T01:30:45.903Z,10.65
2022-08-08T01:34:00.476Z,10.52
2022-08-08T01:37:13.415Z,11.43
2022-08-08T01:40:19.987Z,11.68
2022-08-08T01:42:54.383Z,11.65
2022-08-08T01:45:50.561Z,11.28
2022-08-08T01:48:48.275Z,10.96
2022-08-08T01:52:41.607Z,11.38
2022-08-08T01:55:26.512Z,11.11
2022-08-08T01:58:12.139Z,10.83
2022-08-08T02:00:35.308Z,10.65
2022-08-08T02:03:57.514Z,10.77
2022-08-08T02:06:36.643Z,10.58
2022-08-08T02:10:02.823Z,10.69
2022-08-08T02:12:19.741Z,11.16
2022-08-08T02:14:59.225Z,11.06
2022-08-08T02:17:36.700Z,11.32
2022-08-08T02:21:00.946Z,11.25
2022-08-08T02:23:20.953Z,11.16
2022-08-08T02:26:00.658Z,11.18
2022-08-08T02:28:51.539Z,11.21
2022-08-08T02:31:54.084Z,11.24
2022-08-08T02:35:08.507Z,10.68
2022-08-08T02:37:52.279Z,10.62
2022-08-08T02:40:38.960Z,10.96
2022-08-08T02:44:38.657Z,10.83
2022-08-08T02:46:50.747Z,10.53
2022-08-08T02:50:17.626Z,11.14
2022-08-08T02:52:59.660Z,10.84
2022-08-08T02:56:03.364Z,10.55
2022-08-08T02:59:37.227Z,10.62
2022-08-08T03:02:36.911Z,10.37
2022-08-08T03:05:46.328Z,10.26
2022-08-08T03:08:52.378Z,10.26
2022-08-08T03:12:01.732Z,10.15
2022-08-08T03:16:00.166Z,10.05
2022-08-08T03:18:05.036Z,10.05
2022-08-08T03:20:46.982Z,10.12
2022-08-08T03:23:21.856Z,10.25
2022-08-08T03:25:52.058Z,10.07
2022-08-08T03:28:23.808Z,10.48
2022-08-08T03:31:22.749Z,10.78
2022-08-08T03:34:00.214Z,11.10
2022-08-08T03:36:30.592Z,11.28
2022-08-08T03:39:15.391Z,11.31
2022-08-08T03:42:28.742Z,11.37
2022-08-08T03:44:34.747Z,11.34
2022-08-08T03:47:17.621Z,11.02
2022-08-08T03:49:57.965Z,11.04
2022-08-08T03:52:32.502Z,10.78
2022-08-08T03:55:20.140Z,10.84
2022-08-08T03:58:31.305Z,11.02
2022-08-08T04:01:02.708Z,10.88
2022-08-08T04:03:59.817Z,10.81
2022-08-08T04:06:23.405Z,11.23
2022-08-08T04:08:51.578Z,11.03
2022-08-08T04:11:23.617Z,11.28
2022-08-08T04:14:04.440Z,11.18
2022-08-08T04:16:41.807Z,11.01
2022-08-08T04:19:25.221Z,10.95
2022-08-08T04:21:54.078Z,10.80
2022-08-08T04:24:29.648Z,11.00
2022-08-08T04:27:00.765Z,11.03
2022-08-08T04:29:36.757Z,10.95
2022-08-08T04:32:06.673Z,10.90
2022-08-08T04:34:42.874Z,10.83
2022-08-08T04:37:17.726Z,10.90
2022-08-08T04:40:05.418Z,10.98
2022-08-08T04:42:37.111Z,11.18
2022-08-08T04:45:06.533Z,11.21
2022-08-08T04:47:43.233Z,11.18
2022-08-08T04:50:14.405Z,11.25
2022-08-08T04:53:01.201Z,11.24
2022-08-08T04:55:47.489Z,11.26
2022-08-08T04:58:23.919Z,11.56
2022-08-08T05:00:52.470Z,11.32
2022-08-08T05:04:11.518Z,11.36
2022-08-08T05:06:12.764Z,11.54
2022-08-08T05:08:43.279Z,11.73
2022-08-08T05:11:18.658Z,11.86
2022-08-08T05:13:57.794Z,12.11
2022-08-08T05:16:47.679Z,12.28
2022-08-08T05:20:10.050Z,12.49
2022-08-08T05:22:07.240Z,12.68
2022-08-08T05:24:37.336Z,12.77
2022-08-08T05:27:06.523Z,13.04
2022-08-08T05:29:36.815Z,13.17
2022-08-08T05:32:07.329Z,13.22
2022-08-08T05:34:38.124Z,13.37
2022-08-08T05:37:15.900Z,13.32
2022-08-08T05:39:53.558Z,13.29
2022-08-08T05:42:25.532Z,13.26
2022-08-08T05:45:00.443Z,13.31
2022-08-08T05:47:41.496Z,13.41
2022-08-08T05:50:19.643Z,13.71
2022-08-08T05:52:49.329Z,13.94
2022-08-08T05:55:18.254Z,14.05
2022-08-08T05:58:04.842Z,14.55
2022-08-08T06:00:36.419Z,14.89
2022-08-08T06:03:24.678Z,15.22
2022-08-08T06:05:59.335Z,15.65
2022-08-08T06:08:34.413Z,16.08
2022-08-08T06:11:04.350Z,16.56
2022-08-08T06:13:36.565Z,17.08
2022-08-08T06:16:19.025Z,17.78
2022-08-08T06:18:55.678Z,18.28
2022-08-08T06:21:32.552Z,19.60
2022-08-08T06:24:04.873Z,19.38
2022-08-08T06:26:52.323Z,17.91
2022-08-08T06:29:56.335Z,17.86
2022-08-08T06:32:18.475Z,18.10
2022-08-08T06:35:11.938Z,18.39
2022-08-08T06:37:46.636Z,19.00
2022-08-08T06:40:19.785Z,19.30
2022-08-08T06:42:56.712Z,19.95
2022-08-08T06:45:25.629Z,20.10
2022-08-08T06:48:01.015Z,19.20
2022-08-08T06:50:38.414Z,19.43
2022-08-08T06:53:17.286Z,19.62
2022-08-08T06:56:02.853Z,19.21
2022-08-08T06:58:33.614Z,18.80
2022-08-08T07:01:52.572Z,18.98
2022-08-08T07:04:36.964Z,19.40
2022-08-08T07:06:55.680Z,20.16
2022-08-08T07:09:45.137Z,20.78
2022-08-08T07:12:30.540Z,20.49
2022-08-08T07:15:06.581Z,21.26
2022-08-08T07:18:02.190Z,22.11
2022-08-08T07:20:51.383Z,21.46
2022-08-08T07:26:40.172Z,21.72
2022-08-08T07:29:58.839Z,21.74
2022-08-08T07:32:17.180Z,22.40
2022-08-08T07:35:01.298Z,21.70
2022-08-08T07:37:55.689Z,22.26
2022-08-08T07:40:32.757Z,23.55
2022-08-08T07:43:32.124Z,24.74
2022-08-08T07:46:23.481Z,24.05
2022-08-08T07:49:14.357Z,22.89
2022-08-08T07:51:53.576Z,23.47
2022-08-08T07:57:36.241Z,23.44
2022-08-08T08:00:15.886Z,23.94
2022-08-08T08:02:56.602Z,23.37
2022-08-08T08:05:33.058Z,24.35
2022-08-08T08:08:06.217Z,22.35
2022-08-08T08:10:38.517Z,22.44
2022-08-08T08:13:26.011Z,21.68
2022-08-08T08:16:12.572Z,21.88
2022-08-08T08:18:56.618Z,21.87
2022-08-08T08:21:44.719Z,21.58
2022-08-08T08:24:30.421Z,21.33
2022-08-08T08:27:20.007Z,22.76
2022-08-08T08:34:21.162Z,26.02
2022-08-08T08:37:08.969Z,25.67
2022-08-08T08:40:02.089Z,25.55
2022-08-08T08:42:38.359Z,25.74
2022-08-08T08:45:21.416Z,25.90
2022-08-08T08:47:53.972Z,27.20
2022-08-08T08:50:33.547Z,25.74
2022-08-08T08:53:54.801Z,24.41
2022-08-08T08:56:02.522Z,25.10
2022-08-08T08:58:46.876Z,23.17
2022-08-08T09:01:38.402Z,22.85
2022-08-08T09:04:38.898Z,23.41
2022-08-08T09:07:52.132Z,24.56
2022-08-08T09:10:41.886Z,25.69
2022-08-08T09:13:48.144Z,26.75
2022-08-08T09:22:02.128Z,27.28
2022-08-08T09:22:58.394Z,28.03
2022-08-08T09:29:31.558Z,27.16
2022-08-08T09:35:16.011Z,26.80
2022-08-08T09:38:01.693Z,26.17
2022-08-08T09:40:56.314Z,27.43
2022-08-08T09:44:18.844Z,27.79
2022-08-08T09:47:25.940Z,27.60
2022-08-08T09:50:14.081Z,26.06
2022-08-08T09:52:59.206Z,24.70
2022-08-08T09:56:05.825Z,23.96
2022-08-08T09:58:58.784Z,23.62
2022-08-08T10:02:00.171Z,22.84
2022-08-08T10:04:47.675Z,22.79
2022-08-08T10:07:35.918Z,22.84
2022-08-08T10:10:41.702Z,22.38
2022-08-08T10:13:35.462Z,22.43
2022-08-08T10:16:09.182Z,22.29
2022-08-08T10:19:09.186Z,22.34
2022-08-08T10:21:58.071Z,22.27
2022-08-08T10:24:37.972Z,22.29
2022-08-08T10:27:20.998Z,22.02
2022-08-08T10:33:18.069Z,22.69
2022-08-08T10:36:19.889Z,22.75
2022-08-08T10:38:48.395Z,23.68
2022-08-08T10:41:20.078Z,23.57
2022-08-08T10:43:51.817Z,23.71
2022-08-08T10:46:30.288Z,24.18
2022-08-08T10:48:59.714Z,24.78
2022-08-08T10:51:41.008Z,23.98
2022-08-08T10:54:32.317Z,24.42
2022-08-08T10:57:08.870Z,24.40
2022-08-08T10:59:39.762Z,24.53
2022-08-08T11:02:10.267Z,24.95
2022-08-08T11:04:53.280Z,25.00
2022-08-08T11:08:31.566Z,24.93
2022-08-08T11:10:32.230Z,23.84
2022-08-08T11:13:29.137Z,23.34
2022-08-08T11:16:00.627Z,23.44
2022-08-08T11:18:35.481Z,23.46
2022-08-08T11:21:09.788Z,23.68
2022-08-08T11:23:43.985Z,24.21
2022-08-08T11:26:21.774Z,23.87
2022-08-08T11:28:59.089Z,23.58
2022-08-08T11:31:52.012Z,23.99
2022-08-08T11:34:38.037Z,24.10
2022-08-08T11:37:15.740Z,25.03
2022-08-08T11:39:57.569Z,24.80
2022-08-08T11:42:37.539Z,25.06
2022-08-08T11:45:29.780Z,25.24
2022-08-08T11:48:09.688Z,23.74
2022-08-08T11:50:47.785Z,23.89
2022-08-08T11:53:24.182Z,24.17
2022-08-08T11:55:54.437Z,23.71
2022-08-08T11:58:37.640Z,23.17
2022-08-08T12:01:12.180Z,22.76
2022-08-08T12:03:59.289Z,22.11
2022-08-08T12:06:40.688Z,22.08
2022-08-08T12:09:25.696Z,21.92
2022-08-08T12:11:56.951Z,21.87
2022-08-08T12:14:29.121Z,21.49
2022-08-08T12:16:58.024Z,21.89
2022-08-08T12:19:37.713Z,22.12
2022-08-08T12:22:35.708Z,22.39
2022-08-08T12:25:29.803Z,22.10
2022-08-08T12:28:15.485Z,22.38
2022-08-08T12:31:24.371Z,22.32
2022-08-08T12:34:02.087Z,21.92
2022-08-08T12:36:54.825Z,22.33
2022-08-08T12:40:01.451Z,22.04
2022-08-08T12:42:33.155Z,22.60
2022-08-08T12:46:00.057Z,23.17
2022-08-08T12:48:39.135Z,23.04
2022-08-08T12:51:22.427Z,22.85
2022-08-08T12:54:04.522Z,22.78
2022-08-08T12:56:49.798Z,23.00
2022-08-08T12:59:27.190Z,23.04
2022-08-08T13:02:13.793Z,22.60
2022-08-08T13:04:55.512Z,23.12
2022-08-08T13:08:03.219Z,22.92
2022-08-08T13:10:55.423Z,23.41
2022-08-08T13:13:37.528Z,23.22
2022-08-08T13:16:30.173Z,23.11
2022-08-08T13:20:06.301Z,23.70
2022-08-08T13:23:36.945Z,23.06
2022-08-08T13:26:29.231Z,23.01
2022-08-08T13:29:00.481Z,23.19
2022-08-08T13:31:45.788Z,22.50
2022-08-08T13:34:54.482Z,22.00
2022-08-08T13:38:04.974Z,21.63
2022-08-08T13:40:41.451Z,21.45
2022-08-08T13:46:32.977Z,22.15
2022-08-08T13:50:35.491Z,22.31
2022-08-08T13:52:51.163Z,22.82
2022-08-08T13:55:36.149Z,22.67
2022-08-08T13:58:11.406Z,22.59
2022-08-08T14:00:50.640Z,23.01
2022-08-08T14:03:53.426Z,22.55
2022-08-08T14:06:33.550Z,22.40
2022-08-08T14:09:29.199Z,22.51
2022-08-08T14:12:00.555Z,22.98
2022-08-08T14:14:42.542Z,23.52
2022-08-08T14:17:22.595Z,23.71
2022-08-08T14:20:09.909Z,23.01
2022-08-08T14:22:45.789Z,23.00
2022-08-08T14:25:55.245Z,23.34
2022-08-08T14:32:10.529Z,24.24
2022-08-08T14:34:56.959Z,23.59
2022-08-08T14:37:59.701Z,23.31
2022-08-08T14:40:38.612Z,23.37
2022-08-08T14:43:31.724Z,23.48
2022-08-08T14:46:49.664Z,23.47
2022-08-08T15:05:08.101Z,24.01
2022-08-08T15:08:22.169Z,24.13
2022-08-08T15:11:20.634Z,24.24
2022-08-08T15:14:03.199Z,23.57
2022-08-08T15:16:39.188Z,23.53
2022-08-08T15:19:17.297Z,23.31
2022-08-08T15:21:55.221Z,23.25
2022-08-08T15:24:41.124Z,22.73
2022-08-08T15:27:57.612Z,22.75
2022-08-08T15:30:02.455Z,22.87
2022-08-08T15:32:36.892Z,22.55
2022-08-08T15:35:13.089Z,22.68
2022-08-08T15:37:59.687Z,22.85
2022-08-08T15:40:28.270Z,23.02
2022-08-08T15:42:57.107Z,22.43
2022-08-08T15:45:53.976Z,22.56
2022-08-08T15:48:23.925Z,22.66
2022-08-08T15:51:06.507Z,22.42
2022-08-08T15:53:49.299Z,22.42
2022-08-08T15:56:20.639Z,22.57
2022-08-08T15:58:49.551Z,22.70
2022-08-08T16:01:20.978Z,22.87
2022-08-08T16:03:56.498Z,22.83
2022-08-08T16:06:27.808Z,22.97
2022-08-08T16:13:01.178Z,23.28
2022-08-08T16:13:05.026Z,22.79
2022-08-08T16:14:37.429Z,22.46
2022-08-08T16:17:06.655Z,22.61
2022-08-08T16:19:58.901Z,22.40
2022-08-08T16:22:37.054Z,22.30
2022-08-08T16:25:11.830Z,22.19
2022-08-08T16:27:59.461Z,22.38
2022-08-08T16:30:36.297Z,22.26
2022-08-08T16:33:05.836Z,23.92
2022-08-08T16:35:43.582Z,25.00
2022-08-08T16:38:31.384Z,25.47
2022-08-08T16:41:00.189Z,26.24
2022-08-08T16:43:30.163Z,25.45
2022-08-08T16:46:36.735Z,23.67
2022-08-08T16:49:09.138Z,22.71
2022-08-08T16:55:00.276Z,22.34
2022-08-08T16:55:01.828Z,22.08
2022-08-08T16:57:23.589Z,21.83
2022-08-08T17:00:12.099Z,21.50
2022-08-08T17:03:01.459Z,21.35
2022-08-08T17:05:45.008Z,21.26
2022-08-08T17:08:23.565Z,21.17
2022-08-08T17:10:58.823Z,20.87
2022-08-08T17:14:00.688Z,20.89
2022-08-08T17:16:34.260Z,20.63
2022-08-08T17:19:07.022Z,20.96
2022-08-08T17:21:42.868Z,22.06
2022-08-08T17:24:27.888Z,21.99
2022-08-08T17:27:00.654Z,22.05
2022-08-08T17:29:33.854Z,21.41
2022-08-08T17:32:07.975Z,21.99
2022-08-08T17:35:04.457Z,22.74
2022-08-08T17:37:27.473Z,23.07
2022-08-08T17:40:12.489Z,23.45
2022-08-08T17:42:50.867Z,23.46
2022-08-08T17:45:28.738Z,23.37
2022-08-08T17:48:15.037Z,24.15
2022-08-08T17:51:01.229Z,23.57
2022-08-08T17:53:43.327Z,23.43
2022-08-08T17:56:13.246Z,23.12
2022-08-08T17:58:42.453Z,22.79
2022-08-08T18:01:32.168Z,22.88
2022-08-08T18:04:09.587Z,22.76
2022-08-08T18:06:49.800Z,22.57
2022-08-08T18:09:18.238Z,22.72
2022-08-08T18:11:51.005Z,22.77
2022-08-08T18:14:23.388Z,22.56
2022-08-08T18:16:52.820Z,22.28
2022-08-08T18:19:24.766Z,22.08
2022-08-08T18:22:06.738Z,21.79
2022-08-08T18:24:55.999Z,21.53
2022-08-08T18:27:27.858Z,21.26
2022-08-08T18:29:59.199Z,20.70
2022-08-08T18:32:27.471Z,20.06
2022-08-08T18:34:57.353Z,19.87
2022-08-08T18:37:33.944Z,19.61
2022-08-08T18:40:12.939Z,19.42
2022-08-08T18:42:45.621Z,19.23
2022-08-08T18:45:45.103Z,19.11
2022-08-08T18:48:08.040Z,18.86
2022-08-08T18:50:50.130Z,18.87
2022-08-08T18:54:00.497Z,18.75
2022-08-08T18:56:22.246Z,18.56
2022-08-08T18:58:54.537Z,18.47
2022-08-08T19:02:26.122Z,18.43
2022-08-08T19:04:13.930Z,18.18
2022-08-08T19:06:47.021Z,18.11
2022-08-08T19:09:49.167Z,17.97
2022-08-08T19:12:26.459Z,17.89
2022-08-08T19:14:56.587Z,17.68
2022-08-08T19:17:28.875Z,17.67
2022-08-08T19:20:02.050Z,17.45
2022-08-08T19:22:33.269Z,17.48
2022-08-08T19:25:51.622Z,17.26
2022-08-08T19:27:55.747Z,17.09
2022-08-08T19:30:28.604Z,17.15
2022-08-08T19:33:00.675Z,17.16
2022-08-08T19:35:45.415Z,17.15
2022-08-08T19:38:22.072Z,16.98
2022-08-08T19:40:55.839Z,16.67
2022-08-08T19:43:28.541Z,16.83
2022-08-08T19:46:04.422Z,16.68
2022-08-08T19:48:33.602Z,16.77
2022-08-08T19:51:02.937Z,16.51
2022-08-08T19:53:53.552Z,16.50
2022-08-08T19:56:39.456Z,16.54
2022-08-08T19:59:12.411Z,16.43
2022-08-08T20:02:01.335Z,16.30
2022-08-08T20:04:49.877Z,16.28
2022-08-08T20:08:29.192Z,16.06
2022-08-08T20:10:27.333Z,16.05
2022-08-08T20:16:12.878Z,15.91
2022-08-08T20:18:53.719Z,15.67
2022-08-08T20:21:25.837Z,15.55
2022-08-08T20:23:57.953Z,15.31
2022-08-08T20:26:29.848Z,15.32
2022-08-08T20:29:00.225Z,15.21
2022-08-08T20:32:06.841Z,15.32
2022-08-08T20:34:28.918Z,14.81
2022-08-08T20:36:59.030Z,14.75
2022-08-08T20:39:41.727Z,14.67
2022-08-08T20:42:28.235Z,14.50
2022-08-08T20:44:58.529Z,14.50
2022-08-08T20:47:36.617Z,14.20
2022-08-08T20:50:10.921Z,14.29
2022-08-08T20:52:48.368Z,14.00
2022-08-08T20:55:22.611Z,13.94
2022-08-08T20:58:01.454Z,14.01
2022-08-08T21:00:30.788Z,13.95
2022-08-08T21:02:59.163Z,13.92
2022-08-08T21:05:31.673Z,13.94
2022-08-08T21:08:36.331Z,13.81
2022-08-08T21:10:51.262Z,13.92
2022-08-08T21:13:40.046Z,13.61
2022-08-08T21:16:20.733Z,13.61
2022-08-08T21:18:58.376Z,13.41
2022-08-08T21:21:39.576Z,13.37
2022-08-08T21:24:23.961Z,13.51
2022-08-08T21:26:55.622Z,13.31
2022-08-08T21:30:04.400Z,13.45
2022-08-08T21:32:14.378Z,13.53
2022-08-08T21:34:56.608Z,13.54
2022-08-08T21:37:54.283Z,13.70
2022-08-08T21:40:31.184Z,13.97
2022-08-08T21:43:08.116Z,13.85
2022-08-08T21:48:01.256Z,13.81
2022-08-08T21:48:30.415Z,13.91
2022-08-08T21:51:13.300Z,13.80
2022-08-08T21:54:32.215Z,13.81
2022-08-08T21:56:42.154Z,14.02
2022-08-08T21:59:15.289Z,13.67
2022-08-08T22:01:51.985Z,13.32
2022-08-08T22:04:27.164Z,13.40
2022-08-08T22:07:09.567Z,13.28
2022-08-08T22:09:43.765Z,13.22
2022-08-08T22:12:15.049Z,13.02
2022-08-08T22:14:49.998Z,13.12
2022-08-08T22:17:19.619Z,13.14
2022-08-08T22:20:11.066Z,13.16
2022-08-08T22:23:25.316Z,12.98
2022-08-08T22:26:26.834Z,13.36
2022-08-08T22:29:14.593Z,13.37
2022-08-08T22:32:01.692Z,13.11
2022-08-08T22:34:50.991Z,13.29
2022-08-08T22:37:48.780Z,13.51
2022-08-08T22:40:16.746Z,13.22
2022-08-08T22:43:10.397Z,13.60
2022-08-08T22:45:43.186Z,13.49
2022-08-08T22:48:26.195Z,13.37
2022-08-08T22:51:28.915Z,13.22
2022-08-08T22:54:32.833Z,13.28
2022-08-08T22:56:47.372Z,13.05
2022-08-08T22:59:20.774Z,13.19
2022-08-08T23:02:03.755Z,13.24
2022-08-08T23:04:35.937Z,12.89
2022-08-08T23:07:09.835Z,12.70
2022-08-08T23:09:55.265Z,12.53
2022-08-08T23:12:55.347Z,12.66
2022-08-08T23:16:38.868Z,12.73
2022-08-08T23:18:41.452Z,13.02
2022-08-08T23:29:03.276Z,11.99
2022-08-08T23:31:41.877Z,12.25
2022-08-08T23:34:49.727Z,12.12
2022-08-08T23:38:03.276Z,11.85
2022-08-08T23:40:53.194Z,11.73
2022-08-08T23:43:47.967Z,11.88
2022-08-08T23:49:06.766Z,11.72
2022-08-08T23:49:43.136Z,12.15
2022-08-08T23:52:32.268Z,11.98
2022-08-08T23:55:14.162Z,11.96
2022-08-08T23:58:32.021Z,11.94
